createdAt,value
2022-11-16T00:00:43.884Z,99237.28515625
2022-11-16T00:01:44.239Z,99236.33203125
2022-11-16T00:02:43.887Z,99240.01953125
2022-11-16T00:03:43.911Z,99242.02734375
2022-11-16T00:04:43.972Z,99237.53125
2022-11-16T00:05:46.881Z,99234.2734375
2022-11-16T00:06:44.172Z,99236.58203125
2022-11-16T00:07:43.777Z,99235.59765625
2022-11-16T00:08:43.979Z,99234.5625
2022-11-16T00:09:43.967Z,99233.93359375
2022-11-16T00:10:43.770Z,99234.45703125
2022-11-16T00:11:44.119Z,99233.5859375
2022-11-16T00:12:43.886Z,99238.125
2022-11-16T00:13:43.928Z,99238.8046875
2022-11-16T00:14:43.792Z,99236.69140625
2022-11-16T00:15:43.757Z,99239.5078125
2022-11-16T00:16:48.447Z,99235.1953125
2022-11-16T00:17:43.981Z,99238.703125
2022-11-16T00:18:43.998Z,99235.875
2022-11-16T00:19:43.897Z,99239.25390625
2022-11-16T00:20:43.893Z,99240.8125
2022-11-16T00:21:44.207Z,99236.3671875
2022-11-16T00:22:43.774Z,99238.23046875
2022-11-16T00:23:43.890Z,99238.58203125
2022-11-16T00:24:43.894Z,99239.8515625
2022-11-16T00:25:43.949Z,99243.90625
2022-11-16T00:26:44.161Z,99241.94140625
2022-11-16T00:27:46.958Z,99245.6640625
2022-11-16T00:28:43.974Z,99245.671875
2022-11-16T00:29:43.874Z,99245.9140625
2022-11-16T00:30:43.797Z,99246.84765625
2022-11-16T00:31:44.192Z,99248.90234375
2022-11-16T00:32:43.929Z,99249.5390625
2022-11-16T00:33:43.857Z,99244.18359375
2022-11-16T00:34:43.902Z,99248.0625
2022-11-16T00:35:43.877Z,99245.7734375
2022-11-16T00:36:44.132Z,99248.484375
2022-11-16T00:37:43.969Z,99244.7734375
2022-11-16T00:38:46.880Z,99244.01171875
2022-11-16T00:39:43.982Z,99246.1640625
2022-11-16T00:40:43.757Z,99246.02734375
2022-11-16T00:41:44.193Z,99242.07421875
2022-11-16T00:42:43.737Z,99241.19921875
2022-11-16T00:43:43.864Z,99239.41015625
2022-11-16T00:44:43.900Z,99240.234375
2022-11-16T00:45:43.887Z,99245.73828125
2022-11-16T00:46:44.124Z,99247.99609375
2022-11-16T00:47:43.908Z,99240.35546875
2022-11-16T00:48:43.900Z,99238.203125
2022-11-16T00:49:46.906Z,99239.41796875
2022-11-16T00:50:43.920Z,99244.515625
2022-11-16T00:51:44.196Z,99244.4921875
2022-11-16T00:52:43.964Z,99246.43359375
2022-11-16T00:53:43.980Z,99246.74609375
2022-11-16T00:54:43.773Z,99251.2890625
2022-11-16T00:55:43.914Z,99246.6796875
2022-11-16T00:56:44.193Z,99249.3203125
2022-11-16T00:57:43.969Z,99249.9609375
2022-11-16T00:58:43.862Z,99248.8984375
2022-11-16T00:59:43.906Z,99248.22265625
2022-11-16T01:00:46.943Z,99246.37109375
2022-11-16T01:01:44.338Z,99246.73046875
2022-11-16T01:02:43.937Z,99241.80078125
2022-11-16T01:03:43.892Z,99238.0703125
2022-11-16T01:04:43.969Z,99238.69921875
2022-11-16T01:05:43.761Z,99240.84375
2022-11-16T01:06:44.162Z,99238.05859375
2022-11-16T01:07:43.758Z,99235.26171875
2022-11-16T01:08:44.008Z,99233.67578125
2022-11-16T01:09:43.856Z,99234.375
2022-11-16T01:10:43.995Z,99234.9140625
2022-11-16T01:11:49.794Z,99227.875
2022-11-16T01:12:43.923Z,99224.77734375
2022-11-16T01:13:43.880Z,99224.4921875
2022-11-16T01:14:43.845Z,99226.68359375
2022-11-16T01:15:43.883Z,99225.453125
2022-11-16T01:16:44.189Z,99224.71875
2022-11-16T01:17:43.879Z,99229.28125
2022-11-16T01:18:43.801Z,99229.12109375
2022-11-16T01:19:43.862Z,99229.61328125
2022-11-16T01:20:43.993Z,99230.71484375
2022-11-16T01:21:44.139Z,99229.87890625
2022-11-16T01:22:46.900Z,99227.56640625
2022-11-16T01:23:43.905Z,99223.6953125
2022-11-16T01:24:43.771Z,99223.9375
2022-11-16T01:25:43.937Z,99222.34765625
2022-11-16T01:26:44.123Z,99222.859375
2022-11-16T01:27:43.867Z,99222.8359375
2022-11-16T01:28:43.914Z,99225.69921875
2022-11-16T01:29:43.871Z,99222.1796875
2022-11-16T01:30:43.848Z,99221.05078125
2022-11-16T01:31:44.195Z,99222.5859375
2022-11-16T01:32:43.973Z,99224.6953125
2022-11-16T01:33:46.872Z,99221.88671875
2022-11-16T01:34:43.943Z,99217.03515625
2022-11-16T01:35:43.905Z,99218.6328125
2022-11-16T01:36:44.123Z,99218.59375
2022-11-16T01:37:43.865Z,99213.2109375
2022-11-16T01:38:43.844Z,99210.9765625
2022-11-16T01:39:43.784Z,99211.28125
2022-11-16T01:40:43.764Z,99209.58203125
2022-11-16T01:41:44.169Z,99210.44140625
2022-11-16T01:42:43.773Z,99207.1875
2022-11-16T01:43:43.947Z,99207.6640625
2022-11-16T01:44:46.884Z,99204.63671875
2022-11-16T01:45:43.871Z,99205.4296875
2022-11-16T01:46:44.192Z,99203.3828125
2022-11-16T01:47:43.932Z,99203.76953125
2022-11-16T01:48:44.048Z,99204.7265625
2022-11-16T01:49:43.995Z,99202.27734375
2022-11-16T01:50:46.931Z,99202.62890625
2022-11-16T01:51:44.165Z,99201.45703125
2022-11-16T01:52:43.873Z,99197.0390625
2022-11-16T01:53:43.903Z,99199.21484375
2022-11-16T01:54:43.987Z,99199.00390625
2022-11-16T01:55:43.859Z,99198.88671875
2022-11-16T01:56:44.116Z,99201.78515625
2022-11-16T01:57:43.897Z,99198.35546875
2022-11-16T01:58:43.959Z,99192.23046875
2022-11-16T01:59:43.888Z,99196.0390625
2022-11-16T02:00:43.966Z,99192.3359375
2022-11-16T02:01:49.819Z,99193.7109375
2022-11-16T02:02:43.975Z,99194.3046875
2022-11-16T02:03:43.964Z,99190.6796875
2022-11-16T02:04:43.908Z,99190.00390625
2022-11-16T02:05:43.886Z,99187.3046875
2022-11-16T02:06:44.233Z,99187.2734375
2022-11-16T02:07:43.859Z,99185.62109375
2022-11-16T02:08:44.608Z,99187.65625
2022-11-16T02:09:43.753Z,99191.2109375
2022-11-16T02:10:43.900Z,99189.06640625
2022-11-16T02:11:44.252Z,99191.4765625
2022-11-16T02:12:46.928Z,99188.32421875
2022-11-16T02:13:43.972Z,99185.890625
2022-11-16T02:14:43.907Z,99187.91796875
2022-11-16T02:15:43.895Z,99180.81640625
2022-11-16T02:16:44.123Z,99182.1875
2022-11-16T02:17:43.959Z,99180.5859375
2022-11-16T02:18:43.859Z,99181.33984375
2022-11-16T02:19:43.781Z,99177.62109375
2022-11-16T02:20:43.900Z,99178.36328125
2022-11-16T02:21:44.289Z,99178.66796875
2022-11-16T02:22:43.906Z,99176.00390625
2022-11-16T02:23:46.802Z,99172.56640625
2022-11-16T02:24:44.006Z,99175.796875
2022-11-16T02:25:43.954Z,99177.08984375
2022-11-16T02:26:44.189Z,99175.98828125
2022-11-16T02:27:43.897Z,99170.4453125
2022-11-16T02:28:43.756Z,99171.50390625
2022-11-16T02:29:43.882Z,99173.79296875
2022-11-16T02:30:43.788Z,99173.8984375
2022-11-16T02:31:44.255Z,99172.52734375
2022-11-16T02:32:43.839Z,99172.671875
2022-11-16T02:33:43.908Z,99172.55078125
2022-11-16T02:34:46.799Z,99172.89453125
2022-11-16T02:35:43.970Z,99171.4375
2022-11-16T02:36:44.159Z,99167.796875
2022-11-16T02:37:43.947Z,99169.3515625
2022-11-16T02:38:43.887Z,99167.40625
2022-11-16T02:39:43.933Z,99165.1328125
2022-11-16T02:40:46.895Z,99164.03515625
2022-11-16T02:41:44.169Z,99162.68359375
2022-11-16T02:42:43.916Z,99163.3359375
2022-11-16T02:43:43.846Z,99163.78125
2022-11-16T02:44:43.833Z,99163.2890625
2022-11-16T02:45:43.775Z,99161.5390625
2022-11-16T02:46:44.113Z,99161.86328125
2022-11-16T02:47:43.919Z,99164.30078125
2022-11-16T02:48:43.947Z,99163.8125
2022-11-16T02:49:43.983Z,99160.77734375
2022-11-16T02:50:43.952Z,99161.66015625
2022-11-16T02:51:47.152Z,99161.3515625
2022-11-16T02:52:43.850Z,99161.03125
2022-11-16T02:53:43.855Z,99160.37890625
2022-11-16T02:54:43.849Z,99157.55078125
2022-11-16T02:55:43.864Z,99157.71484375
2022-11-16T02:56:44.195Z,99158.859375
2022-11-16T02:57:43.991Z,99152.84375
2022-11-16T02:58:43.990Z,99152.16796875
2022-11-16T02:59:43.990Z,99148.9375
2022-11-16T03:00:43.961Z,99149.16015625
2022-11-16T03:01:44.203Z,99148.60546875
2022-11-16T03:02:43.924Z,99149.69140625
2022-11-16T03:03:43.903Z,99149.1015625
2022-11-16T03:04:43.984Z,99149.01953125
2022-11-16T03:05:43.866Z,99150.43359375
2022-11-16T03:06:44.127Z,99148.52734375
2022-11-16T03:07:46.886Z,99148.74609375
2022-11-16T03:08:43.914Z,99149.87109375
2022-11-16T03:09:43.945Z,99150.66796875
2022-11-16T03:10:43.761Z,99153.046875
2022-11-16T03:11:44.313Z,99151.609375
2022-11-16T03:12:43.865Z,99154.5390625
2022-11-16T03:13:43.883Z,99149.4609375
2022-11-16T03:14:43.764Z,99149.69921875
2022-11-16T03:15:43.887Z,99153.7734375
2022-11-16T03:16:44.121Z,99153.46484375
2022-11-16T03:17:43.879Z,99150.23046875
2022-11-16T03:18:46.912Z,99150.796875
2022-11-16T03:19:43.946Z,99148.76953125
2022-11-16T03:20:43.941Z,99148.23828125
2022-11-16T03:21:44.123Z,99147.21484375
2022-11-16T03:22:43.864Z,99152.12109375
2022-11-16T03:23:43.779Z,99153.51171875
2022-11-16T03:24:43.786Z,99154.39453125
2022-11-16T03:25:43.761Z,99156.27734375
2022-11-16T03:26:43.953Z,99155.69140625
2022-11-16T03:27:43.870Z,99159.60546875
2022-11-16T03:28:43.990Z,99159.015625
2022-11-16T03:29:46.892Z,99156.58203125
2022-11-16T03:30:43.983Z,99157.70703125
2022-11-16T03:31:44.193Z,99157.0546875
2022-11-16T03:32:43.989Z,99157.4609375
2022-11-16T03:33:43.957Z,99154.26953125
2022-11-16T03:34:43.979Z,99155.640625
2022-11-16T03:35:43.920Z,99153.34375
2022-11-16T03:36:44.128Z,99149.359375
2022-11-16T03:37:43.867Z,99147.36328125
2022-11-16T03:38:43.838Z,99147.984375
2022-11-16T03:39:43.901Z,99149.640625
2022-11-16T03:40:43.755Z,99145.8359375
2022-11-16T03:41:44.193Z,99143.74609375
2022-11-16T03:42:43.888Z,99144.625
2022-11-16T03:43:43.861Z,99142.484375
2022-11-16T03:44:43.868Z,99140.0546875
2022-11-16T03:45:46.879Z,99139.54296875
2022-11-16T03:46:44.122Z,99137.6796875
2022-11-16T03:47:43.950Z,99136.1171875
2022-11-16T03:48:43.950Z,99134.44140625
2022-11-16T03:49:43.871Z,99133.140625
2022-11-16T03:50:43.981Z,99133.15234375
2022-11-16T03:51:44.148Z,99131.55078125
2022-11-16T03:52:43.901Z,99131.359375
2022-11-16T03:53:43.843Z,99130.0703125
2022-11-16T03:54:43.966Z,99131.625
2022-11-16T03:55:49.470Z,99127.20703125
2022-11-16T03:56:44.146Z,99128.609375
2022-11-16T03:57:43.935Z,99130.64453125
2022-11-16T03:58:43.864Z,99132.15625
2022-11-16T03:59:43.773Z,99134.8515625
2022-11-16T04:00:43.909Z,99134.75
2022-11-16T04:01:49.859Z,99133.5859375
2022-11-16T04:02:43.819Z,99135.48828125
2022-11-16T04:03:43.949Z,99139.8515625
2022-11-16T04:04:43.749Z,99140.609375
2022-11-16T04:05:43.894Z,99143.87890625
2022-11-16T04:06:44.129Z,99147.66796875
2022-11-16T04:07:43.869Z,99146.265625
2022-11-16T04:08:43.788Z,99149.6015625
2022-11-16T04:09:43.899Z,99151.7578125
2022-11-16T04:10:43.975Z,99150.25
2022-11-16T04:11:44.206Z,99150.78125
2022-11-16T04:12:46.875Z,99156.875
2022-11-16T04:13:43.894Z,99156.703125
2022-11-16T04:14:43.857Z,99158.0234375
2022-11-16T04:15:43.864Z,99154.30078125
2022-11-16T04:16:44.191Z,99157.95703125
2022-11-16T04:17:43.757Z,99161.765625
2022-11-16T04:18:43.973Z,99166.50390625
2022-11-16T04:19:43.790Z,99167.734375
2022-11-16T04:20:43.936Z,99161.90625
2022-11-16T04:21:44.192Z,99158.98046875
2022-11-16T04:22:43.985Z,99155.94921875
2022-11-16T04:23:43.891Z,99152.2734375
2022-11-16T04:24:43.904Z,99151.0234375
2022-11-16T04:25:43.855Z,99151.796875
2022-11-16T04:26:44.124Z,99152.765625
2022-11-16T04:27:43.975Z,99147.21875
2022-11-16T04:28:43.852Z,99149.76171875
2022-11-16T04:29:43.848Z,99151.78125
2022-11-16T04:30:43.938Z,99152.84375
2022-11-16T04:31:44.251Z,99152.6171875
2022-11-16T04:32:44.001Z,99151.7734375
2022-11-16T04:33:46.857Z,99156.94140625
2022-11-16T04:34:43.974Z,99155.08984375
2022-11-16T04:35:43.858Z,99156.17578125
2022-11-16T04:36:43.879Z,99155.25390625
2022-11-16T04:37:43.955Z,99153.625
2022-11-16T04:38:43.990Z,99157.8203125
2022-11-16T04:39:43.897Z,99158.09765625
2022-11-16T04:40:43.911Z,99150.078125
2022-11-16T04:41:44.130Z,99151.65234375
2022-11-16T04:42:43.932Z,99147.84375
2022-11-16T04:43:43.778Z,99148.83984375
2022-11-16T04:44:46.792Z,99148.43359375
2022-11-16T04:45:43.760Z,99145.515625
2022-11-16T04:46:44.188Z,99143.828125
2022-11-16T04:47:43.868Z,99146.84375
2022-11-16T04:48:43.766Z,99149.62890625
2022-11-16T04:49:43.853Z,99150.92578125
2022-11-16T04:50:44.043Z,99148.28515625
2022-11-16T04:51:44.134Z,99149.6484375
2022-11-16T04:52:43.983Z,99156.203125
2022-11-16T04:53:43.833Z,99159.6328125
2022-11-16T04:54:43.909Z,99161.76953125
2022-11-16T04:55:43.840Z,99159.98828125
2022-11-16T04:56:44.193Z,99158.6328125
2022-11-16T04:57:43.962Z,99157.015625
2022-11-16T04:58:43.924Z,99158.95703125
2022-11-16T04:59:43.846Z,99155.62890625
2022-11-16T05:00:43.909Z,99152.51953125
2022-11-16T05:01:44.176Z,99153.5
2022-11-16T05:02:43.912Z,99155
2022-11-16T05:03:43.758Z,99152.5859375
2022-11-16T05:04:43.867Z,99157.6640625
2022-11-16T05:05:46.867Z,99158.8828125
2022-11-16T05:06:44.131Z,99163.00390625
2022-11-16T05:07:43.942Z,99165.2734375
2022-11-16T05:08:43.850Z,99168.734375
2022-11-16T05:09:43.820Z,99175.57421875
2022-11-16T05:10:43.912Z,99175.921875
2022-11-16T05:11:43.765Z,99174.671875
2022-11-16T05:12:43.863Z,99175.796875
2022-11-16T05:13:43.791Z,99172.27734375
2022-11-16T05:14:43.886Z,99170.41015625
2022-11-16T05:15:43.910Z,99174.22265625
2022-11-16T05:16:44.124Z,99168.11328125
2022-11-16T05:17:43.910Z,99169.6171875
2022-11-16T05:18:43.758Z,99166.30078125
2022-11-16T05:19:43.922Z,99169.52734375
2022-11-16T05:20:43.971Z,99170.375
2022-11-16T05:21:49.855Z,99168.953125
2022-11-16T05:22:43.936Z,99172.3125
2022-11-16T05:23:43.933Z,99167.85546875
2022-11-16T05:24:43.871Z,99168.78515625
2022-11-16T05:25:43.908Z,99166.47265625
2022-11-16T05:26:44.135Z,99168.0703125
2022-11-16T05:27:43.863Z,99168.1953125
2022-11-16T05:28:43.897Z,99166.0234375
2022-11-16T05:29:43.842Z,99168.109375
2022-11-16T05:30:43.772Z,99168.48046875
2022-11-16T05:31:44.126Z,99166.95703125
2022-11-16T05:32:46.920Z,99166.23828125
2022-11-16T05:33:43.853Z,99167.4375
2022-11-16T05:34:43.906Z,99166.95703125
2022-11-16T05:35:43.939Z,99164.12890625
2022-11-16T05:36:43.868Z,99162.41015625
2022-11-16T05:37:43.868Z,99161.75390625
2022-11-16T05:38:43.896Z,99165.30078125
2022-11-16T05:39:43.885Z,99164.51953125
2022-11-16T05:40:43.868Z,99163.2109375
2022-11-16T05:41:44.150Z,99167.39453125
2022-11-16T05:42:43.972Z,99165.87109375
2022-11-16T05:43:46.795Z,99168.75
2022-11-16T05:44:43.958Z,99169.7421875
2022-11-16T05:45:43.771Z,99168.83203125
2022-11-16T05:46:44.216Z,99171.3828125
2022-11-16T05:47:43.835Z,99171.2265625
2022-11-16T05:48:43.729Z,99173.5625
2022-11-16T05:49:43.845Z,99167.765625
2022-11-16T05:50:43.910Z,99171.2890625
2022-11-16T05:51:43.985Z,99174.7421875
2022-11-16T05:52:43.934Z,99172.859375
2022-11-16T05:53:43.871Z,99171.33203125
2022-11-16T05:54:43.932Z,99170.765625
2022-11-16T05:55:43.939Z,99173.87890625
2022-11-16T05:56:44.267Z,99172.43359375
2022-11-16T05:57:43.872Z,99174.9765625
2022-11-16T05:58:43.755Z,99175.1484375
2022-11-16T05:59:46.876Z,99177.453125
2022-11-16T06:00:43.932Z,99180.015625
2022-11-16T06:01:44.135Z,99183.75
2022-11-16T06:02:43.994Z,99187.28125
2022-11-16T06:03:43.840Z,99187.95703125
2022-11-16T06:04:43.878Z,99181.88671875
2022-11-16T06:05:43.922Z,99180.9140625
2022-11-16T06:06:44.199Z,99181.5703125
2022-11-16T06:07:43.844Z,99182.61328125
2022-11-16T06:08:43.758Z,99183.20703125
2022-11-16T06:09:44.514Z,99188.59375
2022-11-16T06:10:46.810Z,99183.55859375
2022-11-16T06:11:44.215Z,99183.39453125
2022-11-16T06:12:43.919Z,99188.92578125
2022-11-16T06:13:43.874Z,99187.05078125
2022-11-16T06:14:43.949Z,99188.47265625
2022-11-16T06:15:49.645Z,99190.0078125
2022-11-16T06:16:44.261Z,99191.43359375
2022-11-16T06:17:44.309Z,99190.34765625
2022-11-16T06:18:43.935Z,99188.1328125
2022-11-16T06:19:43.914Z,99192.45703125
2022-11-16T06:20:43.840Z,99190.1796875
2022-11-16T06:21:49.788Z,99189.21875
2022-11-16T06:22:43.942Z,99189.02734375
2022-11-16T06:23:43.925Z,99191.17578125
2022-11-16T06:24:43.842Z,99192.98828125
2022-11-16T06:25:43.899Z,99193.8984375
2022-11-16T06:26:44.127Z,99200.17578125
2022-11-16T06:27:43.774Z,99199.33984375
2022-11-16T06:28:43.764Z,99200.5546875
2022-11-16T06:29:43.902Z,99201.0625
2022-11-16T06:30:43.890Z,99201.609375
2022-11-16T06:31:44.129Z,99204.39453125
2022-11-16T06:32:46.802Z,99206.76171875
2022-11-16T06:33:43.922Z,99208.1640625
2022-11-16T06:34:44.007Z,99202.703125
2022-11-16T06:35:43.902Z,99201.72265625
2022-11-16T06:36:44.195Z,99206.2890625
2022-11-16T06:37:43.910Z,99208.40234375
2022-11-16T06:38:43.754Z,99204.734375
2022-11-16T06:39:43.865Z,99205.37109375
2022-11-16T06:40:43.887Z,99205.1640625
2022-11-16T06:41:44.187Z,99203
2022-11-16T06:42:43.964Z,99208.890625
2022-11-16T06:43:46.807Z,99207.52734375
2022-11-16T06:44:43.936Z,99205.71484375
2022-11-16T06:45:43.985Z,99204.9921875
2022-11-16T06:46:44.132Z,99208.8828125
2022-11-16T06:47:43.948Z,99203.1484375
2022-11-16T06:48:43.883Z,99205.2265625
2022-11-16T06:49:43.868Z,99202.60546875
2022-11-16T06:50:43.912Z,99195.2890625
2022-11-16T06:51:44.191Z,99203.26953125
2022-11-16T06:52:43.948Z,99205.1953125
2022-11-16T06:53:43.778Z,99207.4765625
2022-11-16T06:54:46.892Z,99210.48828125
2022-11-16T06:55:43.951Z,99214.6484375
2022-11-16T06:56:44.194Z,99211.43359375
2022-11-16T06:57:43.859Z,99208.92578125
2022-11-16T06:58:43.779Z,99212.109375
2022-11-16T06:59:43.860Z,99209.39453125
2022-11-16T07:00:43.790Z,99211.90234375
2022-11-16T07:01:44.302Z,99214.609375
2022-11-16T07:02:43.863Z,99217.13671875
2022-11-16T07:03:43.882Z,99218.5625
2022-11-16T07:04:43.972Z,99217.4609375
2022-11-16T07:05:46.876Z,99216.42578125
2022-11-16T07:06:44.120Z,99219.7734375
2022-11-16T07:07:43.871Z,99218.32421875
2022-11-16T07:08:43.899Z,99219.50390625
2022-11-16T07:09:43.987Z,99221.6328125
2022-11-16T07:10:43.951Z,99220.6953125
2022-11-16T07:11:50.358Z,99222.11328125
2022-11-16T07:12:43.852Z,99221.91796875
2022-11-16T07:13:43.757Z,99221.45703125
2022-11-16T07:14:43.942Z,99227.37890625
2022-11-16T07:15:43.855Z,99228.16796875
2022-11-16T07:16:44.195Z,99234.5
2022-11-16T07:17:46.936Z,99235.26953125
2022-11-16T07:18:43.890Z,99236.06640625
2022-11-16T07:19:43.856Z,99236.1484375
2022-11-16T07:20:43.887Z,99234.1640625
2022-11-16T07:21:44.265Z,99234.8359375
2022-11-16T07:22:43.895Z,99235.1875
2022-11-16T07:23:43.878Z,99237.515625
2022-11-16T07:24:43.756Z,99237.640625
2022-11-16T07:25:43.906Z,99241.203125
2022-11-16T07:26:44.250Z,99241.796875
2022-11-16T07:27:43.980Z,99239.86328125
2022-11-16T07:28:48.490Z,99241.29296875
2022-11-16T07:29:43.932Z,99240.23046875
2022-11-16T07:30:43.777Z,99243.62109375
2022-11-16T07:31:44.177Z,99242.984375
2022-11-16T07:32:43.939Z,99246.51171875
2022-11-16T07:33:43.928Z,99251.49609375
2022-11-16T07:34:43.974Z,99250.4140625
2022-11-16T07:35:43.986Z,99254.53515625
2022-11-16T07:36:44.127Z,99254.40625
2022-11-16T07:37:43.877Z,99254.2421875
2022-11-16T07:38:43.927Z,99254.4140625
2022-11-16T07:39:43.959Z,99255.9296875
2022-11-16T07:40:43.874Z,99255.6953125
2022-11-16T07:41:44.267Z,99254.0546875
2022-11-16T07:42:43.856Z,99254.08203125
2022-11-16T07:43:48.451Z,99258.21875
2022-11-16T07:44:46.890Z,99259.2578125
2022-11-16T07:45:43.899Z,99261.4765625
2022-11-16T07:46:47.642Z,99261.66796875
2022-11-16T07:47:43.963Z,99259.88671875
2022-11-16T07:48:43.916Z,99259.24609375
2022-11-16T07:49:43.865Z,99260.97265625
2022-11-16T07:50:43.879Z,99259.3828125
2022-11-16T07:51:44.187Z,99258.796875
2022-11-16T07:52:43.980Z,99261.6875
2022-11-16T07:53:43.931Z,99257.1328125
2022-11-16T07:54:43.924Z,99258.921875
2022-11-16T07:55:46.827Z,99255.20703125
2022-11-16T07:56:44.365Z,99255.609375
2022-11-16T07:57:46.808Z,99252.63671875
2022-11-16T07:58:44.087Z,99256.24609375
2022-11-16T07:59:43.749Z,99256.41796875
2022-11-16T08:00:43.883Z,99259.359375
2022-11-16T08:01:44.173Z,99258.7265625
2022-11-16T08:02:43.836Z,99258.4140625
2022-11-16T08:03:43.927Z,99265.30078125
2022-11-16T08:04:43.939Z,99264.36328125
2022-11-16T08:05:43.919Z,99264.0234375
2022-11-16T08:06:44.119Z,99264.95703125
2022-11-16T08:07:43.878Z,99267.50390625
2022-11-16T08:08:43.843Z,99267.12109375
2022-11-16T08:09:43.941Z,99266.65234375
2022-11-16T08:10:43.894Z,99266.87109375
2022-11-16T08:11:47.355Z,99273.859375
2022-11-16T08:12:43.964Z,99271.51171875
2022-11-16T08:13:43.973Z,99273.25390625
2022-11-16T08:14:43.990Z,99273.51171875
2022-11-16T08:15:43.875Z,99269.83984375
2022-11-16T08:16:43.882Z,99268.82421875
2022-11-16T08:17:43.755Z,99270.375
2022-11-16T08:18:43.899Z,99270.6328125
2022-11-16T08:19:43.898Z,99272.1875
2022-11-16T08:20:43.850Z,99274.24609375
2022-11-16T08:21:45.013Z,99271.984375
2022-11-16T08:22:46.901Z,99274.54296875
2022-11-16T08:23:43.990Z,99274.11328125
2022-11-16T08:24:43.938Z,99274.02734375
2022-11-16T08:25:43.908Z,99275.04296875
2022-11-16T08:26:44.136Z,99277.4140625
2022-11-16T08:27:43.858Z,99277.34765625
2022-11-16T08:28:43.765Z,99275.8203125
2022-11-16T08:29:43.924Z,99278.6796875
2022-11-16T08:30:43.849Z,99279.48046875
2022-11-16T08:31:44.133Z,99275.140625
2022-11-16T08:32:43.852Z,99280.5390625
2022-11-16T08:33:43.887Z,99276.88671875
2022-11-16T08:34:43.760Z,99279.6796875
2022-11-16T08:35:43.880Z,99280.125
2022-11-16T08:36:44.204Z,99285.62890625
2022-11-16T08:37:43.939Z,99288.31640625
2022-11-16T08:38:46.793Z,99288.1796875
2022-11-16T08:39:43.928Z,99293.76953125
2022-11-16T08:40:43.846Z,99296.53515625
2022-11-16T08:41:44.212Z,99297.3046875
2022-11-16T08:42:44.146Z,99296.17578125
2022-11-16T08:43:43.881Z,99298.890625
2022-11-16T08:44:43.774Z,99301.61328125
2022-11-16T08:45:43.929Z,99303.28125
2022-11-16T08:46:44.125Z,99305.44140625
2022-11-16T08:47:43.959Z,99302.9296875
2022-11-16T08:48:43.911Z,99303.4609375
2022-11-16T08:49:49.225Z,99305.8203125
2022-11-16T08:51:15.463Z,99301.359375
2022-11-16T08:51:44.131Z,99307.921875
2022-11-16T08:52:43.992Z,99306.55859375
2022-11-16T08:53:43.772Z,99306.546875
2022-11-16T08:54:46.889Z,99310.48828125
2022-11-16T08:55:43.965Z,99315.49609375
2022-11-16T08:56:44.202Z,99319.5859375
2022-11-16T08:57:43.946Z,99318.29296875
2022-11-16T08:58:43.757Z,99321.20703125
2022-11-16T08:59:43.911Z,99325.3046875
2022-11-16T09:00:46.899Z,99324.0390625
2022-11-16T09:01:44.206Z,99331.6953125
2022-11-16T09:02:43.852Z,99330.765625
2022-11-16T09:03:43.902Z,99326.359375
2022-11-16T09:04:43.758Z,99328.5625
2022-11-16T09:05:43.893Z,99330.16015625
2022-11-16T09:06:44.117Z,99323.890625
2022-11-16T09:07:43.838Z,99323.44140625
2022-11-16T09:08:43.942Z,99321.77734375
2022-11-16T09:09:43.777Z,99323.90625
2022-11-16T09:10:43.921Z,99324.1171875
2022-11-16T09:11:50.370Z,99323.75
2022-11-16T09:12:43.960Z,99326.4765625
2022-11-16T09:13:43.772Z,99326.984375
2022-11-16T09:14:43.754Z,99325.0546875
2022-11-16T09:15:43.828Z,99322.640625
2022-11-16T09:16:44.236Z,99321.3828125
2022-11-16T09:17:43.786Z,99319.5546875
2022-11-16T09:18:43.853Z,99312.5546875
2022-11-16T09:19:43.899Z,99314.27734375
2022-11-16T09:20:43.949Z,99313.40234375
2022-11-16T09:21:44.200Z,99318.48046875
2022-11-16T09:22:46.874Z,99322.07421875
2022-11-16T09:23:43.967Z,99321.98046875
2022-11-16T09:24:43.936Z,99323.50390625
2022-11-16T09:25:43.851Z,99318.32421875
2022-11-16T09:26:44.195Z,99325.63671875
2022-11-16T09:27:43.855Z,99325.10546875
2022-11-16T09:28:46.861Z,99329.59765625
2022-11-16T09:29:43.842Z,99328.09765625
2022-11-16T09:30:43.895Z,99328.83203125
2022-11-16T09:31:44.136Z,99334.25
2022-11-16T09:32:43.958Z,99337.59765625
2022-11-16T09:33:43.925Z,99336.8046875
2022-11-16T09:34:43.884Z,99338.15625
2022-11-16T09:35:43.918Z,99338.65625
2022-11-16T09:36:44.198Z,99342.78125
2022-11-16T09:37:43.949Z,99340.75
2022-11-16T09:39:17.731Z,99342.3125
2022-11-16T09:39:46.904Z,99342.64453125
2022-11-16T09:40:43.944Z,99342.828125
2022-11-16T09:41:44.155Z,99345.59375
2022-11-16T09:42:43.986Z,99344.640625
2022-11-16T09:43:46.189Z,99348.2265625
2022-11-16T09:44:43.840Z,99349.0859375
2022-11-16T09:45:46.785Z,99354.46484375
2022-11-16T09:46:44.158Z,99359.7109375
2022-11-16T09:47:43.882Z,99356.578125
2022-11-16T09:48:43.959Z,99355.56640625
2022-11-16T09:49:43.865Z,99360.109375
2022-11-16T09:50:43.924Z,99362.59375
2022-11-16T09:51:44.121Z,99360.40234375
2022-11-16T09:52:43.919Z,99363.2265625
2022-11-16T09:53:43.971Z,99363.46875
2022-11-16T09:54:43.791Z,99364.1484375
2022-11-16T09:55:43.789Z,99366.65234375
2022-11-16T09:56:49.853Z,99363.40625
2022-11-16T09:57:43.835Z,99358.70703125
2022-11-16T09:58:43.763Z,99364.01171875
2022-11-16T09:59:43.841Z,99360.81640625
2022-11-16T10:00:44.006Z,99358.796875
2022-11-16T10:01:44.181Z,99356.33203125
2022-11-16T10:02:43.867Z,99358.23046875
2022-11-16T10:03:43.882Z,99355.4609375
2022-11-16T10:04:43.903Z,99355.91796875
2022-11-16T10:05:43.930Z,99352.015625
2022-11-16T10:06:44.199Z,99352.49609375
2022-11-16T10:07:43.892Z,99349.2734375
2022-11-16T10:08:43.777Z,99351.140625
2022-11-16T10:09:43.862Z,99348.375
2022-11-16T10:10:43.869Z,99346.17578125
2022-11-16T10:11:44.245Z,99345.21484375
2022-11-16T10:12:46.834Z,99344.375
2022-11-16T10:13:43.980Z,99345.78515625
2022-11-16T10:14:43.873Z,99340.515625